createdAt,value
2023-04-18T00:00:24.873Z,100.00
2023-04-18T00:02:53.964Z,100.00
2023-04-18T00:05:23.624Z,100.00
2023-04-18T00:07:53.424Z,100.00
2023-04-18T00:10:20.050Z,100.00
2023-04-18T00:12:47.242Z,100.00
2023-04-18T00:15:14.150Z,100.00
2023-04-18T00:17:43.555Z,100.00
2023-04-18T00:20:11.336Z,100.00
2023-04-18T00:22:42.843Z,100.00
2023-04-18T00:25:12.227Z,100.00
2023-04-18T00:27:39.723Z,100.00
2023-04-18T00:30:09.308Z,100.00
2023-04-18T00:32:36.036Z,100.00
2023-04-18T00:35:05.951Z,100.00
2023-04-18T00:37:32.517Z,100.00
2023-04-18T00:40:05.641Z,100.00
2023-04-18T00:42:33.558Z,100.00
2023-04-18T00:45:00.187Z,100.00
2023-04-18T00:47:26.893Z,100.00
2023-04-18T00:49:56.693Z,100.00
2023-04-18T00:52:27.262Z,100.00
2023-04-18T00:54:58.642Z,100.00
2023-04-18T00:57:25.207Z,100.00
2023-04-18T00:59:58.048Z,100.00
2023-04-18T01:02:26.447Z,100.00
2023-04-18T01:04:53.196Z,100.00
2023-04-18T01:07:19.734Z,100.00
2023-04-18T01:09:47.052Z,100.00
2023-04-18T01:12:13.634Z,100.00
2023-04-18T01:14:45.698Z,100.00
2023-04-18T01:17:14.441Z,100.00
2023-04-18T01:19:44.492Z,100.00
2023-04-18T01:22:16.264Z,100.00
2023-04-18T01:24:42.894Z,100.00
2023-04-18T01:27:14.531Z,100.00
2023-04-18T01:29:41.110Z,100.00
2023-04-18T01:32:10.271Z,100.00
2023-04-18T01:34:36.908Z,100.00
2023-04-18T01:37:03.524Z,100.00
2023-04-18T01:39:32.385Z,100.00
2023-04-18T01:41:59.002Z,100.00
2023-04-18T01:44:25.907Z,100.00
2023-04-18T01:46:52.470Z,100.00
2023-04-18T01:49:19.061Z,100.00
2023-04-18T01:51:48.083Z,100.00
2023-04-18T01:54:15.213Z,100.00
2023-04-18T01:56:46.582Z,100.00
2023-04-18T01:59:13.107Z,100.00
2023-04-18T02:01:44.940Z,100.00
2023-04-18T02:04:14.333Z,100.00
2023-04-18T02:06:43.116Z,100.00
2023-04-18T02:09:09.650Z,100.00
2023-04-18T02:11:38.441Z,100.00
2023-04-18T02:14:05.033Z,100.00
2023-04-18T02:16:31.644Z,100.00
2023-04-18T02:18:58.201Z,100.00
2023-04-18T02:21:27.084Z,100.00
2023-04-18T02:23:55.847Z,100.00
2023-04-18T02:26:25.123Z,100.00
2023-04-18T02:28:53.901Z,100.00
2023-04-18T02:31:20.551Z,100.00
2023-04-18T02:33:50.187Z,100.00
2023-04-18T02:36:16.729Z,100.00
2023-04-18T02:38:45.790Z,100.00
2023-04-18T02:41:18.104Z,100.00
2023-04-18T02:43:44.712Z,100.00
2023-04-18T02:46:11.619Z,100.00
2023-04-18T02:48:38.272Z,100.00
2023-04-18T02:51:06.039Z,100.00
2023-04-18T02:53:32.864Z,100.00
2023-04-18T02:56:02.566Z,100.00
2023-04-18T02:58:34.769Z,100.00
2023-04-18T03:01:01.318Z,100.00
2023-04-18T03:03:30.935Z,100.00
2023-04-18T03:06:00.553Z,100.00
2023-04-18T03:08:29.466Z,100.00
2023-04-18T03:10:58.496Z,100.00
2023-04-18T03:13:25.418Z,100.00
2023-04-18T03:15:52.305Z,100.00
2023-04-18T03:18:20.941Z,100.00
2023-04-18T03:20:49.895Z,100.00
2023-04-18T03:23:16.508Z,100.00
2023-04-18T03:25:43.072Z,100.00
2023-04-18T03:28:09.633Z,100.00
2023-04-18T03:30:39.170Z,100.00
2023-04-18T03:33:08.651Z,100.00
2023-04-18T03:35:35.198Z,100.00
2023-04-18T03:38:01.796Z,100.00
2023-04-18T03:40:30.621Z,100.00
2023-04-18T03:43:00.504Z,100.00
2023-04-18T03:45:27.115Z,100.00
2023-04-18T03:47:53.767Z,100.00
2023-04-18T03:50:20.573Z,100.00
2023-04-18T03:52:47.161Z,100.00
2023-04-18T03:55:16.113Z,100.00
2023-04-18T03:57:44.908Z,100.00
2023-04-18T04:00:12.412Z,100.00
2023-04-18T04:02:39.472Z,100.00
2023-04-18T04:05:09.030Z,100.00
2023-04-18T04:07:38.161Z,100.00
2023-04-18T04:10:07.238Z,100.00
2023-04-18T04:12:36.200Z,100.00
2023-04-18T04:15:02.810Z,100.00
2023-04-18T04:17:31.881Z,100.00
2023-04-18T04:19:58.408Z,100.00
2023-04-18T04:22:27.338Z,100.00
2023-04-18T04:24:57.823Z,100.00
2023-04-18T04:27:25.127Z,100.00
2023-04-18T04:29:52.339Z,100.00
2023-04-18T04:32:20.409Z,100.00
2023-04-18T04:34:51.899Z,100.00
2023-04-18T04:37:21.450Z,100.00
2023-04-18T04:39:52.869Z,100.00
2023-04-18T04:42:25.116Z,100.00
2023-04-18T04:44:53.664Z,100.00
2023-04-18T04:47:20.615Z,100.00
2023-04-18T04:49:47.180Z,100.00
2023-04-18T04:52:13.729Z,100.00
2023-04-18T04:54:44.910Z,100.00
2023-04-18T04:57:16.341Z,100.00
2023-04-18T04:59:42.896Z,100.00
2023-04-18T05:02:11.629Z,100.00
2023-04-18T05:04:38.473Z,100.00
2023-04-18T05:07:05.785Z,100.00
2023-04-18T05:09:32.330Z,100.00
2023-04-18T05:12:01.518Z,100.00
2023-04-18T05:14:28.123Z,100.00
2023-04-18T05:16:58.106Z,100.00
2023-04-18T05:19:25.197Z,100.00
2023-04-18T05:21:54.226Z,100.00
2023-04-18T05:24:23.108Z,100.00
2023-04-18T05:26:50.232Z,100.00
2023-04-18T05:29:16.941Z,100.00
2023-04-18T05:31:43.596Z,100.00
2023-04-18T05:34:10.220Z,100.00
2023-04-18T05:36:39.295Z,100.00
2023-04-18T05:39:05.855Z,100.00
2023-04-18T05:41:32.454Z,100.00
2023-04-18T05:44:05.329Z,100.00
2023-04-18T05:46:32.993Z,100.00
2023-04-18T05:49:02.182Z,100.00
2023-04-18T05:51:31.377Z,100.00
2023-04-18T05:53:57.944Z,100.00
2023-04-18T05:56:24.606Z,100.00
2023-04-18T05:58:53.577Z,100.00
2023-04-18T06:01:22.417Z,100.00
2023-04-18T06:03:49.073Z,100.00
2023-04-18T06:06:15.949Z,100.00
2023-04-18T06:08:45.095Z,100.00
2023-04-18T06:11:15.057Z,100.00
2023-04-18T06:13:43.924Z,100.00
2023-04-18T06:16:10.624Z,100.00
2023-04-18T06:18:37.335Z,100.00
2023-04-18T06:21:04.003Z,100.00
2023-04-18T06:23:30.528Z,100.00
2023-04-18T06:25:59.549Z,100.00
2023-04-18T06:28:26.452Z,100.00
2023-04-18T06:30:53.019Z,100.00
2023-04-18T06:33:21.806Z,100.00
2023-04-18T06:35:51.102Z,100.00
2023-04-18T06:38:17.709Z,100.00
2023-04-18T06:40:46.507Z,100.00
2023-04-18T06:43:13.101Z,100.00
2023-04-18T06:45:39.739Z,100.00
2023-04-18T06:48:10.745Z,100.00
2023-04-18T06:50:39.638Z,100.00
2023-04-18T06:53:08.673Z,100.00
2023-04-18T06:55:35.920Z,100.00
2023-04-18T06:58:05.526Z,100.00
2023-04-18T07:00:32.101Z,100.00
2023-04-18T07:02:58.824Z,100.00
2023-04-18T07:05:25.481Z,100.00
2023-04-18T07:07:55.097Z,100.00
2023-04-18T07:10:21.771Z,100.00
2023-04-18T07:12:50.866Z,100.00
2023-04-18T07:15:20.038Z,100.00
2023-04-18T07:17:48.963Z,100.00
2023-04-18T07:20:18.043Z,100.00
2023-04-18T07:22:48.080Z,100.00
2023-04-18T07:25:16.776Z,100.00
2023-04-18T07:27:45.574Z,100.00
2023-04-18T07:30:12.490Z,100.00
2023-04-18T07:32:41.361Z,100.00
2023-04-18T07:35:15.329Z,100.00
2023-04-18T07:37:41.944Z,100.00
2023-04-18T07:40:12.122Z,100.00
2023-04-18T07:42:43.369Z,100.00
2023-04-18T07:45:12.803Z,100.00
2023-04-18T07:47:44.483Z,100.00
2023-04-18T07:50:14.025Z,100.00
2023-04-18T07:52:40.537Z,100.00
2023-04-18T07:55:07.544Z,100.00
2023-04-18T07:57:34.272Z,100.00
2023-04-18T08:00:00.955Z,100.00
2023-04-18T08:02:27.593Z,100.00
2023-04-18T08:04:56.785Z,100.00
2023-04-18T08:07:28.222Z,100.00
2023-04-18T08:09:54.818Z,100.00
2023-04-18T08:12:23.843Z,100.00
2023-04-18T08:14:50.407Z,100.00
2023-04-18T08:17:17.152Z,100.00
2023-04-18T08:19:45.108Z,100.00
2023-04-18T08:22:12.035Z,100.00
2023-04-18T08:24:44.556Z,100.00
2023-04-18T08:27:17.855Z,100.00
2023-04-18T08:29:46.589Z,100.00
2023-04-18T08:32:13.129Z,100.00
2023-04-18T08:34:43.491Z,100.00
2023-04-18T08:37:10.232Z,99.05
2023-04-18T08:39:41.535Z,98.01
2023-04-18T08:42:10.474Z,99.88
2023-04-18T08:44:39.578Z,100.00
2023-04-18T08:47:09.579Z,100.00
2023-04-18T08:49:36.159Z,100.00
2023-04-18T08:52:12.360Z,100.00
2023-04-18T08:54:42.015Z,98.75
2023-04-18T08:57:16.522Z,100.00
2023-04-18T08:59:50.397Z,98.12
2023-04-18T09:02:19.242Z,98.26
2023-04-18T09:04:49.065Z,99.87
2023-04-18T09:07:17.401Z,100.00
2023-04-18T09:09:52.638Z,100.00
2023-04-18T09:12:22.715Z,100.00
2023-04-18T09:14:57.511Z,100.00
2023-04-18T09:17:33.406Z,100.00
2023-04-18T09:20:01.853Z,100.00
2023-04-18T09:22:52.178Z,100.00
2023-04-18T09:25:45.033Z,100.00
2023-04-18T09:28:33.102Z,100.00
2023-04-18T09:31:17.467Z,100.00
2023-04-18T09:33:54.462Z,98.25
2023-04-18T09:36:24.049Z,98.51
2023-04-18T09:38:54.456Z,96.60
2023-04-18T09:41:24.637Z,94.74
2023-04-18T09:44:15.288Z,93.04
2023-04-18T09:46:47.372Z,90.92
2023-04-18T09:49:17.670Z,89.74
2023-04-18T09:51:50.214Z,84.79
2023-04-18T09:54:20.738Z,85.88
2023-04-18T09:56:50.704Z,84.37
2023-04-18T09:59:42.699Z,81.20
2023-04-18T10:02:22.569Z,82.85
2023-04-18T10:04:56.540Z,80.31
2023-04-18T10:07:28.360Z,77.72
2023-04-18T10:09:59.673Z,79.47
2023-04-18T10:12:28.765Z,78.97
2023-04-18T10:14:55.984Z,79.83
2023-04-18T10:17:25.539Z,83.38
2023-04-18T10:20:11.125Z,81.64
2023-04-18T10:22:40.239Z,80.31
2023-04-18T10:25:07.435Z,80.77
2023-04-18T10:27:51.763Z,77.81
2023-04-18T10:30:18.770Z,78.77
2023-04-18T10:32:50.521Z,76.84
2023-04-18T10:35:23.576Z,78.11
2023-04-18T10:38:01.903Z,79.63
2023-04-18T10:40:33.788Z,78.89
2023-04-18T10:43:00.624Z,76.90
2023-04-18T10:45:32.532Z,77.62
2023-04-18T10:48:30.017Z,75.88
2023-04-18T10:51:17.737Z,77.74
2023-04-18T10:53:50.993Z,75.47
2023-04-18T10:56:20.638Z,76.90
2023-04-18T10:58:53.658Z,74.96
2023-04-18T11:01:31.675Z,75.55
2023-04-18T11:04:02.453Z,76.08
2023-04-18T11:06:30.392Z,75.72
2023-04-18T11:09:13.993Z,75.71
2023-04-18T11:11:41.577Z,74.94
2023-04-18T11:14:08.266Z,77.20
2023-04-18T11:16:37.400Z,74.28
2023-04-18T11:19:28.269Z,72.52
2023-04-18T11:22:03.325Z,74.13
2023-04-18T11:24:29.984Z,75.11
2023-04-18T11:26:57.032Z,75.16
2023-04-18T11:29:26.105Z,75.54
2023-04-18T11:31:55.285Z,73.20
2023-04-18T11:34:29.911Z,70.71
2023-04-18T11:36:56.505Z,72.57
2023-04-18T11:39:25.539Z,72.87
2023-04-18T11:41:56.859Z,68.27
2023-04-18T11:44:24.826Z,72.08
2023-04-18T11:46:55.180Z,71.59
2023-04-18T11:49:34.398Z,70.14
2023-04-18T11:52:06.546Z,69.17
2023-04-18T11:54:45.651Z,71.82
2023-04-18T11:57:33.002Z,70.09
2023-04-18T12:00:01.042Z,69.66
2023-04-18T12:02:45.390Z,67.12
2023-04-18T12:05:14.986Z,69.88
2023-04-18T12:07:44.232Z,67.92
2023-04-18T12:10:22.107Z,69.41
2023-04-18T12:12:52.500Z,68.05
2023-04-18T12:15:20.268Z,70.77
2023-04-18T12:17:49.137Z,71.84
2023-04-18T12:20:16.149Z,68.51
2023-04-18T12:22:44.027Z,68.41
2023-04-18T12:25:29.111Z,69.33
2023-04-18T12:28:15.256Z,65.48
2023-04-18T12:30:42.393Z,69.31
2023-04-18T12:33:13.615Z,68.87
2023-04-18T12:35:40.452Z,69.95
2023-04-18T12:38:09.227Z,67.92
2023-04-18T12:40:39.567Z,70.24
2023-04-18T12:43:06.874Z,68.32
2023-04-18T12:45:35.818Z,69.85
2023-04-18T12:48:04.668Z,70.20
2023-04-18T12:50:31.371Z,69.05
2023-04-18T12:53:00.473Z,68.92
2023-04-18T12:55:29.024Z,68.70
2023-04-18T12:57:56.082Z,68.56
2023-04-18T13:00:24.376Z,67.51
2023-04-18T13:02:52.491Z,67.46
2023-04-18T13:05:25.099Z,66.26
2023-04-18T13:08:08.465Z,67.69
2023-04-18T13:10:39.766Z,66.79
2023-04-18T13:13:08.498Z,66.09
2023-04-18T13:15:35.114Z,66.73
2023-04-18T13:18:05.094Z,64.87
2023-04-18T13:20:32.539Z,66.35
2023-04-18T13:22:59.123Z,66.92
2023-04-18T13:25:26.619Z,65.90
2023-04-18T13:27:53.380Z,67.52
2023-04-18T13:30:20.071Z,68.97
2023-04-18T13:32:47.073Z,67.74
2023-04-18T13:35:13.826Z,66.62
2023-04-18T13:37:40.457Z,66.75
2023-04-18T13:40:08.007Z,64.60
2023-04-18T13:42:38.478Z,64.61
2023-04-18T13:45:05.807Z,64.30
2023-04-18T13:47:32.567Z,62.39
2023-04-18T13:49:59.413Z,64.80
2023-04-18T13:52:30.727Z,66.84
2023-04-18T13:54:57.330Z,65.09
2023-04-18T13:57:28.500Z,62.77
2023-04-18T13:59:55.071Z,64.71
2023-04-18T14:02:24.201Z,66.14
2023-04-18T14:04:52.152Z,63.65
2023-04-18T14:07:21.070Z,62.99
2023-04-18T14:09:48.202Z,66.16
2023-04-18T14:12:16.919Z,61.38
2023-04-18T14:14:45.682Z,63.50
2023-04-18T14:17:14.631Z,62.69
2023-04-18T14:19:43.532Z,62.09
2023-04-18T14:22:10.134Z,61.66
2023-04-18T14:24:36.693Z,64.96
2023-04-18T14:27:05.546Z,65.56
2023-04-18T14:29:34.332Z,65.41
2023-04-18T14:32:00.923Z,64.73
2023-04-18T14:34:27.482Z,62.76
2023-04-18T14:36:54.069Z,61.94
2023-04-18T14:39:22.869Z,60.51
2023-04-18T14:41:51.681Z,62.85
2023-04-18T14:44:20.990Z,64.02
2023-04-18T14:46:49.851Z,65.91
2023-04-18T14:49:16.616Z,62.54
2023-04-18T14:51:43.321Z,64.20
2023-04-18T14:54:09.913Z,64.42
2023-04-18T14:56:36.508Z,62.42
2023-04-18T14:59:05.324Z,62.45
2023-04-18T15:01:31.892Z,60.70
2023-04-18T15:04:03.669Z,62.31
2023-04-18T15:06:36.211Z,61.44
2023-04-18T15:09:02.855Z,62.41
2023-04-18T15:11:29.429Z,62.09
2023-04-18T15:13:57.051Z,60.77
2023-04-18T15:16:23.693Z,61.31
2023-04-18T15:18:52.515Z,59.19
2023-04-18T15:21:19.077Z,61.35
2023-04-18T15:23:47.869Z,61.95
2023-04-18T15:26:14.661Z,60.27
2023-04-18T15:28:46.606Z,57.86
2023-04-18T15:31:14.330Z,59.50
2023-04-18T15:33:43.056Z,61.29
2023-04-18T15:36:14.497Z,60.27
2023-04-18T15:38:44.035Z,60.49
2023-04-18T15:41:10.670Z,60.91
2023-04-18T15:43:41.752Z,62.05
2023-04-18T15:46:09.321Z,59.03
2023-04-18T15:48:38.258Z,58.70
2023-04-18T15:51:07.678Z,60.29
2023-04-18T15:53:39.186Z,59.94
2023-04-18T15:56:06.428Z,60.58
2023-04-18T15:58:33.005Z,62.75
2023-04-18T16:01:02.820Z,60.85
2023-04-18T16:03:29.551Z,60.19
2023-04-18T16:05:56.322Z,59.65
2023-04-18T16:08:25.179Z,60.89
2023-04-18T16:10:54.265Z,60.18
2023-04-18T16:13:23.355Z,61.51
2023-04-18T16:15:50.035Z,60.29
2023-04-18T16:18:16.644Z,61.26
2023-04-18T16:20:43.326Z,62.92
2023-04-18T16:23:09.911Z,64.38
2023-04-18T16:25:36.482Z,64.94
2023-04-18T16:28:03.382Z,61.83
2023-04-18T16:30:30.034Z,63.69
2023-04-18T16:32:56.999Z,61.38
2023-04-18T16:35:23.758Z,62.46
2023-04-18T16:37:53.799Z,62.53
2023-04-18T16:40:20.602Z,62.36
2023-04-18T16:42:47.188Z,63.13
2023-04-18T16:45:13.978Z,63.32
2023-04-18T16:47:40.715Z,64.71
2023-04-18T16:50:10.183Z,65.96
2023-04-18T16:52:39.310Z,67.53
2023-04-18T16:55:11.426Z,66.68
2023-04-18T16:57:40.252Z,67.89
2023-04-18T17:00:08.368Z,65.55
2023-04-18T17:02:39.681Z,67.72
2023-04-18T17:05:06.753Z,67.51
2023-04-18T17:07:35.997Z,67.16
2023-04-18T17:10:03.031Z,65.74
2023-04-18T17:12:29.606Z,66.19
2023-04-18T17:14:58.683Z,66.48
2023-04-18T17:17:25.353Z,68.67
2023-04-18T17:19:51.917Z,67.89
2023-04-18T17:22:18.475Z,68.78
2023-04-18T17:24:45.011Z,68.29
2023-04-18T17:27:13.654Z,68.17
2023-04-18T17:29:40.913Z,69.62
2023-04-18T17:32:07.780Z,70.40
2023-04-18T17:34:34.568Z,69.61
2023-04-18T17:37:03.442Z,71.09
2023-04-18T17:39:31.257Z,71.69
2023-04-18T17:42:01.043Z,71.67
2023-04-18T17:44:30.635Z,73.47
2023-04-18T17:46:57.173Z,73.30
2023-04-18T17:49:23.856Z,73.15
2023-04-18T17:51:52.781Z,73.51
2023-04-18T17:54:19.339Z,73.93
2023-04-18T17:56:50.505Z,75.01
2023-04-18T17:59:19.612Z,75.30
2023-04-18T18:01:48.812Z,75.61
2023-04-18T18:04:19.845Z,76.67
2023-04-18T18:06:56.372Z,75.34
2023-04-18T18:09:22.958Z,78.47
2023-04-18T18:11:53.990Z,76.65
2023-04-18T18:14:22.012Z,77.08
2023-04-18T18:16:51.280Z,77.31
2023-04-18T18:19:18.076Z,78.29
2023-04-18T18:21:47.212Z,77.71
2023-04-18T18:24:13.990Z,80.67
2023-04-18T18:26:41.009Z,80.44
2023-04-18T18:29:11.190Z,80.39
2023-04-18T18:31:38.822Z,81.25
2023-04-18T18:34:08.351Z,81.13
2023-04-18T18:36:34.958Z,80.89
2023-04-18T18:39:01.576Z,82.13
2023-04-18T18:41:33.080Z,82.76
2023-04-18T18:43:59.647Z,83.15
2023-04-18T18:46:27.279Z,83.16
2023-04-18T18:48:53.959Z,84.35
2023-04-18T18:51:23.804Z,84.35
2023-04-18T18:53:50.605Z,84.64
2023-04-18T18:56:29.416Z,85.27
2023-04-18T18:58:58.295Z,85.99
2023-04-18T19:01:28.747Z,85.60
2023-04-18T19:03:58.273Z,85.20
2023-04-18T19:06:28.616Z,86.41
2023-04-18T19:08:57.513Z,87.79
2023-04-18T19:11:27.868Z,85.72
2023-04-18T19:13:56.714Z,87.21
2023-04-18T19:16:23.363Z,87.83
2023-04-18T19:18:54.826Z,87.46
2023-04-18T19:21:21.452Z,88.34
2023-04-18T19:23:48.068Z,87.40
2023-04-18T19:26:19.365Z,88.94
2023-04-18T19:28:46.051Z,89.94
2023-04-18T19:31:12.667Z,89.90
2023-04-18T19:33:41.829Z,89.86
2023-04-18T19:36:11.438Z,89.25
2023-04-18T19:38:37.980Z,89.93
2023-04-18T19:41:06.864Z,91.97
2023-04-18T19:43:40.270Z,91.66
2023-04-18T19:46:06.850Z,91.49
2023-04-18T19:48:33.633Z,91.33
2023-04-18T19:51:04.228Z,91.92
2023-04-18T19:53:31.060Z,92.20
2023-04-18T19:55:57.781Z,92.44
2023-04-18T19:58:46.838Z,92.57
2023-04-18T20:01:14.608Z,93.50
2023-04-18T20:03:43.526Z,93.60
2023-04-18T20:06:10.863Z,94.11
2023-04-18T20:08:41.521Z,93.38
2023-04-18T20:11:11.540Z,94.66
2023-04-18T20:13:41.337Z,94.64
2023-04-18T20:16:08.999Z,95.70
2023-04-18T20:18:40.207Z,96.57
2023-04-18T20:21:10.841Z,96.46
2023-04-18T20:23:42.157Z,97.19
2023-04-18T20:26:12.076Z,96.83
2023-04-18T20:28:38.696Z,97.56
2023-04-18T20:31:07.834Z,96.23
2023-04-18T20:33:36.546Z,97.54
2023-04-18T20:36:03.597Z,96.45
2023-04-18T20:38:32.709Z,96.93
2023-04-18T20:41:00.814Z,98.09
2023-04-18T20:43:29.717Z,97.48
2023-04-18T20:45:58.686Z,99.12
2023-04-18T20:48:25.566Z,99.98
2023-04-18T20:50:52.156Z,98.88
2023-04-18T20:53:21.126Z,99.12
2023-04-18T20:55:48.577Z,98.97
2023-04-18T20:58:15.205Z,99.58
2023-04-18T21:00:44.876Z,100.00
2023-04-18T21:03:14.914Z,100.00
2023-04-18T21:05:43.287Z,99.48
2023-04-18T21:08:14.650Z,99.77
2023-04-18T21:10:41.237Z,99.74
2023-04-18T21:13:09.241Z,100.00
2023-04-18T21:15:36.037Z,100.00
2023-04-18T21:18:02.712Z,99.96
2023-04-18T21:20:29.312Z,100.00
2023-04-18T21:22:55.896Z,100.00
2023-04-18T21:25:24.956Z,100.00
2023-04-18T21:27:51.862Z,100.00
2023-04-18T21:30:21.246Z,100.00
2023-04-18T21:32:51.547Z,100.00
2023-04-18T21:35:22.593Z,100.00
2023-04-18T21:37:50.918Z,100.00
2023-04-18T21:40:17.573Z,100.00
2023-04-18T21:42:48.154Z,100.00
2023-04-18T21:45:17.427Z,100.00
2023-04-18T21:47:44.044Z,100.00
2023-04-18T21:50:15.291Z,100.00
2023-04-18T21:52:41.909Z,100.00
2023-04-18T21:55:13.410Z,100.00
2023-04-18T21:57:42.230Z,100.00
2023-04-18T22:00:11.201Z,100.00
2023-04-18T22:02:40.895Z,100.00
2023-04-18T22:05:13.952Z,100.00
2023-04-18T22:07:54.471Z,100.00
2023-04-18T22:10:25.054Z,100.00
2023-04-18T22:12:54.093Z,100.00
2023-04-18T22:15:20.729Z,100.00
2023-04-18T22:17:52.078Z,100.00
2023-04-18T22:20:21.642Z,100.00
2023-04-18T22:22:48.295Z,100.00
2023-04-18T22:25:15.026Z,100.00
2023-04-18T22:27:45.065Z,100.00
2023-04-18T22:30:12.400Z,100.00
2023-04-18T22:32:41.880Z,100.00
2023-04-18T22:35:08.999Z,100.00
2023-04-18T22:37:38.275Z,100.00
2023-04-18T22:40:05.544Z,100.00
2023-04-18T22:42:35.645Z,100.00
2023-04-18T22:45:09.920Z,100.00
2023-04-18T22:47:38.725Z,100.00
2023-04-18T22:50:06.289Z,100.00
2023-04-18T22:52:35.385Z,100.00
2023-04-18T22:55:02.752Z,100.00
2023-04-18T22:57:29.391Z,100.00
2023-04-18T22:59:56.473Z,100.00
2023-04-18T23:02:25.236Z,100.00
2023-04-18T23:04:53.384Z,100.00
2023-04-18T23:07:20.062Z,100.00
2023-04-18T23:09:46.617Z,100.00
2023-04-18T23:12:15.706Z,100.00
2023-04-18T23:14:42.292Z,100.00
2023-04-18T23:17:08.865Z,100.00
2023-04-18T23:19:37.609Z,100.00
2023-04-18T23:22:04.216Z,100.00
2023-04-18T23:24:31.475Z,100.00
2023-04-18T23:27:01.487Z,100.00
2023-04-18T23:29:28.141Z,100.00
2023-04-18T23:31:54.691Z,100.00
2023-04-18T23:34:21.304Z,100.00
2023-04-18T23:36:50.218Z,100.00
2023-04-18T23:39:18.550Z,100.00
2023-04-18T23:41:47.836Z,100.00
2023-04-18T23:44:16.830Z,100.00
2023-04-18T23:46:43.490Z,100.00
2023-04-18T23:49:12.296Z,100.00
2023-04-18T23:51:38.815Z,100.00
2023-04-18T23:54:05.655Z,100.00
2023-04-18T23:56:34.405Z,100.00
2023-04-18T23:59:00.973Z,100.00
